sensor_id;sensor_type;location;lat;lon;timestamp;temperature;humidity
37408;DHT22;24866;50.248;8.252;2023-11-21T00:00:53;8.70;99.90
37408;DHT22;24866;50.248;8.252;2023-11-21T00:03:23;8.70;99.90
37408;DHT22;24866;50.248;8.252;2023-11-21T00:05:53;8.70;99.90
37408;DHT22;24866;50.248;8.252;2023-11-21T00:08:22;8.70;99.90
37408;DHT22;24866;50.248;8.252;2023-11-21T00:10:54;8.70;99.90
37408;DHT22;24866;50.248;8.252;2023-11-21T00:13:24;8.70;99.90
37408;DHT22;24866;50.248;8.252;2023-11-21T00:15:54;8.90;99.90
37408;DHT22;24866;50.248;8.252;2023-11-21T00:18:24;8.90;99.90
37408;DHT22;24866;50.248;8.252;2023-11-21T00:20:54;9.10;99.90
37408;DHT22;24866;50.248;8.252;2023-11-21T00:23:24;9.20;99.90
37408;DHT22;24866;50.248;8.252;2023-11-21T00:25:55;9.20;99.90
37408;DHT22;24866;50.248;8.252;2023-11-21T00:28:25;9.30;99.90
37408;DHT22;24866;50.248;8.252;2023-11-21T00:30:56;9.50;99.90
37408;DHT22;24866;50.248;8.252;2023-11-21T00:33:28;9.40;99.90
37408;DHT22;24866;50.248;8.252;2023-11-21T00:35:58;9.40;99.90
37408;DHT22;24866;50.248;8.252;2023-11-21T00:38:29;9.40;99.90
37408;DHT22;24866;50.248;8.252;2023-11-21T00:41:00;9.30;99.90
37408;DHT22;24866;50.248;8.252;2023-11-21T00:43:31;9.50;99.90
37408;DHT22;24866;50.248;8.252;2023-11-21T00:46:04;9.60;99.90
37408;DHT22;24866;50.248;8.252;2023-11-21T00:48:34;9.60;99.90
37408;DHT22;24866;50.248;8.252;2023-11-21T00:51:04;9.60;99.90
37408;DHT22;24866;50.248;8.252;2023-11-21T00:53:34;9.50;99.90
37408;DHT22;24866;50.248;8.252;2023-11-21T00:56:06;9.50;99.90
37408;DHT22;24866;50.248;8.252;2023-11-21T00:58:37;9.40;99.90
37408;DHT22;24866;50.248;8.252;2023-11-21T01:01:06;9.40;99.90
37408;DHT22;24866;50.248;8.252;2023-11-21T01:03:36;9.40;99.90
37408;DHT22;24866;50.248;8.252;2023-11-21T01:06:07;9.40;99.90
37408;DHT22;24866;50.248;8.252;2023-11-21T01:08:37;9.60;99.90
37408;DHT22;24866;50.248;8.252;2023-11-21T01:11:09;9.50;99.90
37408;DHT22;24866;50.248;8.252;2023-11-21T01:13:41;9.50;99.90
37408;DHT22;24866;50.248;8.252;2023-11-21T01:16:11;9.30;99.90
37408;DHT22;24866;50.248;8.252;2023-11-21T01:18:41;9.20;99.90
37408;DHT22;24866;50.248;8.252;2023-11-21T01:21:12;9.30;99.90
37408;DHT22;24866;50.248;8.252;2023-11-21T01:23:41;9.20;99.90
37408;DHT22;24866;50.248;8.252;2023-11-21T01:26:13;9.00;99.90
37408;DHT22;24866;50.248;8.252;2023-11-21T01:28:43;9.20;99.90
37408;DHT22;24866;50.248;8.252;2023-11-21T01:31:12;9.30;99.90
37408;DHT22;24866;50.248;8.252;2023-11-21T01:33:42;9.20;99.90
37408;DHT22;24866;50.248;8.252;2023-11-21T01:36:12;9.20;99.90
37408;DHT22;24866;50.248;8.252;2023-11-21T01:38:42;9.50;99.90
37408;DHT22;24866;50.248;8.252;2023-11-21T01:41:13;9.40;99.90
37408;DHT22;24866;50.248;8.252;2023-11-21T01:43:43;9.40;99.90
37408;DHT22;24866;50.248;8.252;2023-11-21T01:46:13;9.50;99.90
37408;DHT22;24866;50.248;8.252;2023-11-21T01:48:44;9.50;99.90
37408;DHT22;24866;50.248;8.252;2023-11-21T01:51:14;9.30;99.90
37408;DHT22;24866;50.248;8.252;2023-11-21T01:53:44;8.90;99.90
37408;DHT22;24866;50.248;8.252;2023-11-21T01:56:16;8.80;99.90
37408;DHT22;24866;50.248;8.252;2023-11-21T01:58:46;9.10;99.90
37408;DHT22;24866;50.248;8.252;2023-11-21T02:01:16;9.20;99.90
37408;DHT22;24866;50.248;8.252;2023-11-21T02:03:47;9.30;99.90
37408;DHT22;24866;50.248;8.252;2023-11-21T02:06:17;9.40;99.90
37408;DHT22;24866;50.248;8.252;2023-11-21T02:08:48;9.30;99.90
37408;DHT22;24866;50.248;8.252;2023-11-21T02:11:20;9.30;99.90
37408;DHT22;24866;50.248;8.252;2023-11-21T02:13:50;9.40;99.90
37408;DHT22;24866;50.248;8.252;2023-11-21T02:16:22;9.00;99.90
37408;DHT22;24866;50.248;8.252;2023-11-21T02:18:52;8.80;99.90
37408;DHT22;24866;50.248;8.252;2023-11-21T02:21:23;8.80;99.90
37408;DHT22;24866;50.248;8.252;2023-11-21T02:23:55;8.70;99.90
37408;DHT22;24866;50.248;8.252;2023-11-21T02:26:25;8.60;99.90
37408;DHT22;24866;50.248;8.252;2023-11-21T02:28:55;8.50;99.90
37408;DHT22;24866;50.248;8.252;2023-11-21T02:31:26;8.50;99.90
37408;DHT22;24866;50.248;8.252;2023-11-21T02:33:56;8.70;99.90
37408;DHT22;24866;50.248;8.252;2023-11-21T02:36:26;8.40;99.90
37408;DHT22;24866;50.248;8.252;2023-11-21T02:38:57;8.40;99.90
37408;DHT22;24866;50.248;8.252;2023-11-21T02:41:27;8.30;99.90
37408;DHT22;24866;50.248;8.252;2023-11-21T02:43:58;8.60;99.90
37408;DHT22;24866;50.248;8.252;2023-11-21T02:46:28;8.50;99.90
37408;DHT22;24866;50.248;8.252;2023-11-21T02:48:58;8.40;99.90
37408;DHT22;24866;50.248;8.252;2023-11-21T02:51:27;8.30;99.90
37408;DHT22;24866;50.248;8.252;2023-11-21T02:54:00;8.40;99.90
37408;DHT22;24866;50.248;8.252;2023-11-21T02:56:31;8.30;99.90
37408;DHT22;24866;50.248;8.252;2023-11-21T02:59:01;8.20;99.90
37408;DHT22;24866;50.248;8.252;2023-11-21T03:01:31;8.20;99.90
37408;DHT22;24866;50.248;8.252;2023-11-21T03:04:01;8.30;99.90
37408;DHT22;24866;50.248;8.252;2023-11-21T03:06:31;8.30;99.90
37408;DHT22;24866;50.248;8.252;2023-11-21T03:09:02;8.40;99.90
37408;DHT22;24866;50.248;8.252;2023-11-21T03:11:32;8.40;99.90
37408;DHT22;24866;50.248;8.252;2023-11-21T03:14:02;8.50;99.90
37408;DHT22;24866;50.248;8.252;2023-11-21T03:16:32;8.60;99.90
37408;DHT22;24866;50.248;8.252;2023-11-21T03:19:02;8.50;99.90
37408;DHT22;24866;50.248;8.252;2023-11-21T03:21:32;8.50;99.90
37408;DHT22;24866;50.248;8.252;2023-11-21T03:24:04;8.50;99.90
37408;DHT22;24866;50.248;8.252;2023-11-21T03:26:34;8.60;99.90
37408;DHT22;24866;50.248;8.252;2023-11-21T03:29:06;8.60;99.90
37408;DHT22;24866;50.248;8.252;2023-11-21T03:31:35;8.70;99.90
37408;DHT22;24866;50.248;8.252;2023-11-21T03:34:05;8.60;99.90
37408;DHT22;24866;50.248;8.252;2023-11-21T03:36:35;8.60;99.90
37408;DHT22;24866;50.248;8.252;2023-11-21T03:39:07;8.60;99.90
37408;DHT22;24866;50.248;8.252;2023-11-21T03:41:38;8.50;99.90
37408;DHT22;24866;50.248;8.252;2023-11-21T03:44:07;8.40;99.90
37408;DHT22;24866;50.248;8.252;2023-11-21T03:46:37;8.40;99.90
37408;DHT22;24866;50.248;8.252;2023-11-21T03:49:07;8.40;99.90
37408;DHT22;24866;50.248;8.252;2023-11-21T03:51:37;8.40;99.90
37408;DHT22;24866;50.248;8.252;2023-11-21T03:54:08;8.40;99.90
37408;DHT22;24866;50.248;8.252;2023-11-21T03:56:38;8.50;99.90
37408;DHT22;24866;50.248;8.252;2023-11-21T03:59:08;8.50;99.90
37408;DHT22;24866;50.248;8.252;2023-11-21T04:01:40;8.50;99.90
37408;DHT22;24866;50.248;8.252;2023-11-21T04:04:10;8.40;99.90
37408;DHT22;24866;50.248;8.252;2023-11-21T04:06:41;8.40;99.90
37408;DHT22;24866;50.248;8.252;2023-11-21T04:09:12;8.40;99.90
37408;DHT22;24866;50.248;8.252;2023-11-21T04:11:42;8.40;99.90
37408;DHT22;24866;50.248;8.252;2023-11-21T04:14:17;8.40;99.90
37408;DHT22;24866;50.248;8.252;2023-11-21T04:16:47;8.40;99.90
37408;DHT22;24866;50.248;8.252;2023-11-21T04:19:17;8.50;99.90
37408;DHT22;24866;50.248;8.252;2023-11-21T04:21:47;8.50;99.90
37408;DHT22;24866;50.248;8.252;2023-11-21T04:24:18;8.50;99.90
37408;DHT22;24866;50.248;8.252;2023-11-21T04:26:48;8.60;99.90
37408;DHT22;24866;50.248;8.252;2023-11-21T04:29:18;8.50;99.90
37408;DHT22;24866;50.248;8.252;2023-11-21T04:31:47;8.50;99.90
37408;DHT22;24866;50.248;8.252;2023-11-21T04:34:18;8.60;99.90
37408;DHT22;24866;50.248;8.252;2023-11-21T04:36:49;8.60;99.90
37408;DHT22;24866;50.248;8.252;2023-11-21T04:39:20;8.70;99.90
37408;DHT22;24866;50.248;8.252;2023-11-21T04:41:50;8.70;99.90
37408;DHT22;24866;50.248;8.252;2023-11-21T04:44:20;8.60;99.90
37408;DHT22;24866;50.248;8.252;2023-11-21T04:46:49;8.60;99.90
37408;DHT22;24866;50.248;8.252;2023-11-21T04:49:19;8.60;99.90
37408;DHT22;24866;50.248;8.252;2023-11-21T04:51:52;8.60;99.90
37408;DHT22;24866;50.248;8.252;2023-11-21T04:54:23;8.60;99.90
37408;DHT22;24866;50.248;8.252;2023-11-21T04:56:53;8.70;99.90
37408;DHT22;24866;50.248;8.252;2023-11-21T04:59:22;8.60;99.90
37408;DHT22;24866;50.248;8.252;2023-11-21T05:01:53;8.60;99.90
37408;DHT22;24866;50.248;8.252;2023-11-21T05:04:23;8.70;99.90
37408;DHT22;24866;50.248;8.252;2023-11-21T05:06:53;8.70;99.90
37408;DHT22;24866;50.248;8.252;2023-11-21T05:09:24;8.70;99.90
37408;DHT22;24866;50.248;8.252;2023-11-21T05:11:56;8.70;99.90
37408;DHT22;24866;50.248;8.252;2023-11-21T05:14:26;8.70;99.90
37408;DHT22;24866;50.248;8.252;2023-11-21T05:16:56;8.70;99.90
37408;DHT22;24866;50.248;8.252;2023-11-21T05:19:27;8.80;99.90
37408;DHT22;24866;50.248;8.252;2023-11-21T05:21:57;8.90;99.90
37408;DHT22;24866;50.248;8.252;2023-11-21T05:24:30;8.80;99.90
37408;DHT22;24866;50.248;8.252;2023-11-21T05:27:00;8.70;99.90
37408;DHT22;24866;50.248;8.252;2023-11-21T05:29:30;8.80;99.90
37408;DHT22;24866;50.248;8.252;2023-11-21T05:32:00;8.80;99.90
37408;DHT22;24866;50.248;8.252;2023-11-21T05:34:30;8.70;99.90
37408;DHT22;24866;50.248;8.252;2023-11-21T05:36:59;8.60;99.90
37408;DHT22;24866;50.248;8.252;2023-11-21T05:39:31;8.60;99.90
37408;DHT22;24866;50.248;8.252;2023-11-21T05:42:01;8.40;99.90
37408;DHT22;24866;50.248;8.252;2023-11-21T05:44:31;8.40;99.90
37408;DHT22;24866;50.248;8.252;2023-11-21T05:47:01;8.40;99.90
37408;DHT22;24866;50.248;8.252;2023-11-21T05:49:32;8.40;99.90
37408;DHT22;24866;50.248;8.252;2023-11-21T05:52:02;8.40;99.90
37408;DHT22;24866;50.248;8.252;2023-11-21T05:54:33;8.40;99.90
37408;DHT22;24866;50.248;8.252;2023-11-21T05:57:04;8.40;99.90
37408;DHT22;24866;50.248;8.252;2023-11-21T05:59:33;8.40;99.90
37408;DHT22;24866;50.248;8.252;2023-11-21T06:02:03;8.40;99.90
37408;DHT22;24866;50.248;8.252;2023-11-21T06:04:34;8.40;99.90
37408;DHT22;24866;50.248;8.252;2023-11-21T06:07:04;8.40;99.90
37408;DHT22;24866;50.248;8.252;2023-11-21T06:09:36;8.40;99.90
37408;DHT22;24866;50.248;8.252;2023-11-21T06:12:07;8.40;99.90
37408;DHT22;24866;50.248;8.252;2023-11-21T06:14:37;8.40;99.90
37408;DHT22;24866;50.248;8.252;2023-11-21T06:17:07;8.40;99.90
37408;DHT22;24866;50.248;8.252;2023-11-21T06:19:38;8.40;99.90
37408;DHT22;24866;50.248;8.252;2023-11-21T06:22:08;8.40;99.90
37408;DHT22;24866;50.248;8.252;2023-11-21T06:24:40;8.40;99.90
37408;DHT22;24866;50.248;8.252;2023-11-21T06:27:11;8.40;99.90
37408;DHT22;24866;50.248;8.252;2023-11-21T06:29:40;8.50;99.90
37408;DHT22;24866;50.248;8.252;2023-11-21T06:32:11;8.40;99.90
37408;DHT22;24866;50.248;8.252;2023-11-21T06:34:40;8.40;99.90
37408;DHT22;24866;50.248;8.252;2023-11-21T06:37:10;8.30;99.90
37408;DHT22;24866;50.248;8.252;2023-11-21T06:39:41;8.40;99.90
37408;DHT22;24866;50.248;8.252;2023-11-21T06:42:11;8.40;99.90
37408;DHT22;24866;50.248;8.252;2023-11-21T06:44:41;8.40;99.90
37408;DHT22;24866;50.248;8.252;2023-11-21T06:47:13;8.40;99.90
37408;DHT22;24866;50.248;8.252;2023-11-21T06:49:44;8.40;99.90
37408;DHT22;24866;50.248;8.252;2023-11-21T06:52:16;8.40;99.90
37408;DHT22;24866;50.248;8.252;2023-11-21T06:54:48;8.30;99.90
37408;DHT22;24866;50.248;8.252;2023-11-21T06:57:18;8.30;99.90
37408;DHT22;24866;50.248;8.252;2023-11-21T06:59:48;8.40;99.90
37408;DHT22;24866;50.248;8.252;2023-11-21T07:02:19;8.40;99.90
37408;DHT22;24866;50.248;8.252;2023-11-21T07:04:48;8.40;99.90
37408;DHT22;24866;50.248;8.252;2023-11-21T07:07:18;8.40;99.90
37408;DHT22;24866;50.248;8.252;2023-11-21T07:09:50;8.50;99.90
37408;DHT22;24866;50.248;8.252;2023-11-21T07:12:20;8.50;99.90
37408;DHT22;24866;50.248;8.252;2023-11-21T07:14:52;8.60;99.90
37408;DHT22;24866;50.248;8.252;2023-11-21T07:17:22;8.80;99.90
37408;DHT22;24866;50.248;8.252;2023-11-21T07:19:52;9.00;99.90
37408;DHT22;24866;50.248;8.252;2023-11-21T07:22:23;8.70;99.90
37408;DHT22;24866;50.248;8.252;2023-11-21T07:24:55;8.60;99.90
37408;DHT22;24866;50.248;8.252;2023-11-21T07:27:25;8.50;99.90
37408;DHT22;24866;50.248;8.252;2023-11-21T07:29:55;8.50;99.90
37408;DHT22;24866;50.248;8.252;2023-11-21T07:32:26;8.50;99.90
37408;DHT22;24866;50.248;8.252;2023-11-21T07:34:56;8.50;99.90
37408;DHT22;24866;50.248;8.252;2023-11-21T07:37:28;8.50;99.90
37408;DHT22;24866;50.248;8.252;2023-11-21T07:39:59;8.50;99.90
37408;DHT22;24866;50.248;8.252;2023-11-21T07:42:29;8.50;99.90
37408;DHT22;24866;50.248;8.252;2023-11-21T07:44:59;8.50;99.90
37408;DHT22;24866;50.248;8.252;2023-11-21T07:47:29;8.60;99.90
37408;DHT22;24866;50.248;8.252;2023-11-21T07:49:59;8.60;99.90
37408;DHT22;24866;50.248;8.252;2023-11-21T07:52:29;8.60;99.90
37408;DHT22;24866;50.248;8.252;2023-11-21T07:55:00;8.70;99.90
37408;DHT22;24866;50.248;8.252;2023-11-21T07:57:30;8.60;99.90
37408;DHT22;24866;50.248;8.252;2023-11-21T08:00:00;8.40;99.90
37408;DHT22;24866;50.248;8.252;2023-11-21T08:02:30;8.40;99.90
37408;DHT22;24866;50.248;8.252;2023-11-21T08:05:00;8.40;99.90
37408;DHT22;24866;50.248;8.252;2023-11-21T08:07:30;8.50;99.90
37408;DHT22;24866;50.248;8.252;2023-11-21T08:10:02;8.40;99.90
37408;DHT22;24866;50.248;8.252;2023-11-21T08:12:33;8.30;99.90
37408;DHT22;24866;50.248;8.252;2023-11-21T08:15:04;8.40;99.90
37408;DHT22;24866;50.248;8.252;2023-11-21T08:17:35;8.40;99.90
37408;DHT22;24866;50.248;8.252;2023-11-21T08:20:06;8.40;99.90
37408;DHT22;24866;50.248;8.252;2023-11-21T08:22:37;8.40;99.90
37408;DHT22;24866;50.248;8.252;2023-11-21T08:25:11;8.40;99.90
37408;DHT22;24866;50.248;8.252;2023-11-21T08:27:43;8.40;99.90
37408;DHT22;24866;50.248;8.252;2023-11-21T08:30:13;8.40;99.90
37408;DHT22;24866;50.248;8.252;2023-11-21T08:32:45;8.40;99.90
37408;DHT22;24866;50.248;8.252;2023-11-21T08:35:15;8.40;99.90
37408;DHT22;24866;50.248;8.252;2023-11-21T08:37:45;8.50;99.90
37408;DHT22;24866;50.248;8.252;2023-11-21T08:40:17;8.40;99.90
37408;DHT22;24866;50.248;8.252;2023-11-21T08:42:48;8.50;99.90
37408;DHT22;24866;50.248;8.252;2023-11-21T08:45:21;8.50;99.90
37408;DHT22;24866;50.248;8.252;2023-11-21T08:47:51;8.50;99.90
37408;DHT22;24866;50.248;8.252;2023-11-21T08:50:21;8.50;99.90
37408;DHT22;24866;50.248;8.252;2023-11-21T08:52:51;8.60;99.90
37408;DHT22;24866;50.248;8.252;2023-11-21T08:55:22;8.50;99.90
37408;DHT22;24866;50.248;8.252;2023-11-21T08:57:52;8.50;99.90
37408;DHT22;24866;50.248;8.252;2023-11-21T09:00:22;8.50;99.90
37408;DHT22;24866;50.248;8.252;2023-11-21T09:02:52;8.50;99.90
37408;DHT22;24866;50.248;8.252;2023-11-21T09:05:22;8.60;99.90
37408;DHT22;24866;50.248;8.252;2023-11-21T09:07:52;8.60;99.90
37408;DHT22;24866;50.248;8.252;2023-11-21T09:10:23;8.60;99.90
37408;DHT22;24866;50.248;8.252;2023-11-21T09:12:54;8.70;99.90
37408;DHT22;24866;50.248;8.252;2023-11-21T09:15:23;8.60;99.90
37408;DHT22;24866;50.248;8.252;2023-11-21T09:17:53;8.60;99.90
37408;DHT22;24866;50.248;8.252;2023-11-21T09:20:24;8.70;99.90
37408;DHT22;24866;50.248;8.252;2023-11-21T09:22:57;8.70;99.90
37408;DHT22;24866;50.248;8.252;2023-11-21T09:25:28;8.80;99.90
37408;DHT22;24866;50.248;8.252;2023-11-21T09:27:58;8.80;99.90
37408;DHT22;24866;50.248;8.252;2023-11-21T09:30:28;8.70;99.90
37408;DHT22;24866;50.248;8.252;2023-11-21T09:32:59;8.80;99.90
37408;DHT22;24866;50.248;8.252;2023-11-21T09:35:29;8.80;99.90
37408;DHT22;24866;50.248;8.252;2023-11-21T09:37:59;8.70;99.90
37408;DHT22;24866;50.248;8.252;2023-11-21T09:40:32;8.80;99.90
37408;DHT22;24866;50.248;8.252;2023-11-21T09:43:06;8.80;99.90
37408;DHT22;24866;50.248;8.252;2023-11-21T09:45:39;9.00;99.90
37408;DHT22;24866;50.248;8.252;2023-11-21T09:48:10;9.00;99.90
37408;DHT22;24866;50.248;8.252;2023-11-21T09:50:42;9.00;99.90
37408;DHT22;24866;50.248;8.252;2023-11-21T09:53:16;9.10;99.90
37408;DHT22;24866;50.248;8.252;2023-11-21T09:55:51;9.20;99.90
37408;DHT22;24866;50.248;8.252;2023-11-21T09:58:21;9.10;99.90
37408;DHT22;24866;50.248;8.252;2023-11-21T10:00:54;9.10;99.90
37408;DHT22;24866;50.248;8.252;2023-11-21T10:03:25;9.00;99.90
37408;DHT22;24866;50.248;8.252;2023-11-21T10:05:56;9.10;99.90
37408;DHT22;24866;50.248;8.252;2023-11-21T10:08:27;9.00;99.90
37408;DHT22;24866;50.248;8.252;2023-11-21T10:10:59;9.10;99.90
37408;DHT22;24866;50.248;8.252;2023-11-21T10:13:30;9.10;99.90
37408;DHT22;24866;50.248;8.252;2023-11-21T10:16:00;9.20;99.90
37408;DHT22;24866;50.248;8.252;2023-11-21T10:18:34;9.10;99.90
37408;DHT22;24866;50.248;8.252;2023-11-21T10:21:07;9.10;99.90
37408;DHT22;24866;50.248;8.252;2023-11-21T10:23:37;9.10;99.90
37408;DHT22;24866;50.248;8.252;2023-11-21T10:26:11;9.10;99.90
37408;DHT22;24866;50.248;8.252;2023-11-21T10:28:55;9.10;99.90
37408;DHT22;24866;50.248;8.252;2023-11-21T10:31:27;9.30;99.90
37408;DHT22;24866;50.248;8.252;2023-11-21T10:34:13;9.30;99.90
37408;DHT22;24866;50.248;8.252;2023-11-21T10:36:43;9.30;99.90
37408;DHT22;24866;50.248;8.252;2023-11-21T10:39:14;9.30;99.90
37408;DHT22;24866;50.248;8.252;2023-11-21T10:41:49;9.50;99.90
37408;DHT22;24866;50.248;8.252;2023-11-21T10:44:19;9.40;99.90
37408;DHT22;24866;50.248;8.252;2023-11-21T10:46:51;9.30;99.90
37408;DHT22;24866;50.248;8.252;2023-11-21T10:49:25;9.30;99.90
37408;DHT22;24866;50.248;8.252;2023-11-21T10:51:55;9.40;99.90
37408;DHT22;24866;50.248;8.252;2023-11-21T10:54:26;9.30;99.90
37408;DHT22;24866;50.248;8.252;2023-11-21T10:56:59;9.30;99.90
37408;DHT22;24866;50.248;8.252;2023-11-21T10:59:30;9.30;99.90
37408;DHT22;24866;50.248;8.252;2023-11-21T11:02:01;9.40;99.90
37408;DHT22;24866;50.248;8.252;2023-11-21T11:04:34;9.30;99.90
37408;DHT22;24866;50.248;8.252;2023-11-21T11:07:08;9.40;99.90
37408;DHT22;24866;50.248;8.252;2023-11-21T11:09:40;9.40;99.90
37408;DHT22;24866;50.248;8.252;2023-11-21T11:12:12;9.40;99.90
37408;DHT22;24866;50.248;8.252;2023-11-21T11:14:43;9.40;99.90
37408;DHT22;24866;50.248;8.252;2023-11-21T11:17:13;9.20;99.90
37408;DHT22;24866;50.248;8.252;2023-11-21T11:19:45;9.20;99.90
37408;DHT22;24866;50.248;8.252;2023-11-21T11:22:28;9.30;99.90
37408;DHT22;24866;50.248;8.252;2023-11-21T11:25:14;9.30;99.90
37408;DHT22;24866;50.248;8.252;2023-11-21T11:27:54;9.20;99.90
37408;DHT22;24866;50.248;8.252;2023-11-21T11:30:37;9.10;99.90
37408;DHT22;24866;50.248;8.252;2023-11-21T11:33:18;9.20;99.90
37408;DHT22;24866;50.248;8.252;2023-11-21T11:36:03;9.20;99.90
37408;DHT22;24866;50.248;8.252;2023-11-21T11:38:36;9.30;99.90
37408;DHT22;24866;50.248;8.252;2023-11-21T11:41:07;9.40;99.90
37408;DHT22;24866;50.248;8.252;2023-11-21T11:43:39;9.40;99.90
37408;DHT22;24866;50.248;8.252;2023-11-21T11:46:12;9.60;99.90
37408;DHT22;24866;50.248;8.252;2023-11-21T11:48:44;9.60;99.90
37408;DHT22;24866;50.248;8.252;2023-11-21T11:51:15;9.50;99.90
37408;DHT22;24866;50.248;8.252;2023-11-21T11:53:48;9.50;99.90
37408;DHT22;24866;50.248;8.252;2023-11-21T11:56:27;9.40;99.90
37408;DHT22;24866;50.248;8.252;2023-11-21T11:59:02;9.40;99.90
37408;DHT22;24866;50.248;8.252;2023-11-21T12:01:34;9.30;99.90
37408;DHT22;24866;50.248;8.252;2023-11-21T12:04:23;9.30;99.90
37408;DHT22;24866;50.248;8.252;2023-11-21T12:07:03;9.30;99.90
37408;DHT22;24866;50.248;8.252;2023-11-21T12:09:33;9.40;99.90
37408;DHT22;24866;50.248;8.252;2023-11-21T12:12:05;9.40;99.90
37408;DHT22;24866;50.248;8.252;2023-11-21T12:14:37;9.50;99.90
37408;DHT22;24866;50.248;8.252;2023-11-21T12:17:07;9.50;99.90
37408;DHT22;24866;50.248;8.252;2023-11-21T12:19:37;9.60;99.90
37408;DHT22;24866;50.248;8.252;2023-11-21T12:22:10;9.40;99.90
37408;DHT22;24866;50.248;8.252;2023-11-21T12:24:40;9.40;99.90
37408;DHT22;24866;50.248;8.252;2023-11-21T12:27:10;9.50;99.90
37408;DHT22;24866;50.248;8.252;2023-11-21T12:29:44;9.60;99.90
37408;DHT22;24866;50.248;8.252;2023-11-21T12:32:14;9.50;99.90
37408;DHT22;24866;50.248;8.252;2023-11-21T12:34:46;9.60;99.90
37408;DHT22;24866;50.248;8.252;2023-11-21T12:37:16;9.60;99.90
37408;DHT22;24866;50.248;8.252;2023-11-21T12:39:46;9.60;99.90
37408;DHT22;24866;50.248;8.252;2023-11-21T12:42:18;9.70;99.90
37408;DHT22;24866;50.248;8.252;2023-11-21T12:45:10;9.50;99.90
37408;DHT22;24866;50.248;8.252;2023-11-21T12:47:44;9.50;99.90
37408;DHT22;24866;50.248;8.252;2023-11-21T12:50:14;9.60;99.90
37408;DHT22;24866;50.248;8.252;2023-11-21T12:52:45;9.50;99.90
37408;DHT22;24866;50.248;8.252;2023-11-21T12:55:17;9.60;99.90
37408;DHT22;24866;50.248;8.252;2023-11-21T12:57:48;9.50;99.90
37408;DHT22;24866;50.248;8.252;2023-11-21T13:00:27;9.60;99.90
37408;DHT22;24866;50.248;8.252;2023-11-21T13:02:58;9.40;99.90
37408;DHT22;24866;50.248;8.252;2023-11-21T13:05:30;9.50;99.90
37408;DHT22;24866;50.248;8.252;2023-11-21T13:08:03;9.40;99.90
37408;DHT22;24866;50.248;8.252;2023-11-21T13:10:36;9.40;99.90
37408;DHT22;24866;50.248;8.252;2023-11-21T13:13:07;9.50;99.90
37408;DHT22;24866;50.248;8.252;2023-11-21T13:15:40;9.50;99.90
37408;DHT22;24866;50.248;8.252;2023-11-21T13:18:10;9.50;99.90
37408;DHT22;24866;50.248;8.252;2023-11-21T13:20:40;9.50;99.90
37408;DHT22;24866;50.248;8.252;2023-11-21T13:23:11;9.40;99.90
37408;DHT22;24866;50.248;8.252;2023-11-21T13:25:41;9.50;99.90
37408;DHT22;24866;50.248;8.252;2023-11-21T13:28:13;9.50;99.90
37408;DHT22;24866;50.248;8.252;2023-11-21T13:30:45;9.40;99.90
37408;DHT22;24866;50.248;8.252;2023-11-21T13:33:16;9.40;99.90
37408;DHT22;24866;50.248;8.252;2023-11-21T13:35:55;9.40;99.90
37408;DHT22;24866;50.248;8.252;2023-11-21T13:38:26;9.40;99.90
37408;DHT22;24866;50.248;8.252;2023-11-21T13:41:00;9.40;99.90
37408;DHT22;24866;50.248;8.252;2023-11-21T13:43:31;9.40;99.90
37408;DHT22;24866;50.248;8.252;2023-11-21T13:46:04;9.40;99.90
37408;DHT22;24866;50.248;8.252;2023-11-21T13:48:41;9.40;99.90
37408;DHT22;24866;50.248;8.252;2023-11-21T13:51:19;9.40;99.90
37408;DHT22;24866;50.248;8.252;2023-11-21T13:53:53;9.40;99.90
37408;DHT22;24866;50.248;8.252;2023-11-21T13:56:23;9.40;99.90
37408;DHT22;24866;50.248;8.252;2023-11-21T13:58:55;9.40;99.90
37408;DHT22;24866;50.248;8.252;2023-11-21T14:01:27;9.30;99.90
37408;DHT22;24866;50.248;8.252;2023-11-21T14:04:16;9.30;99.90
37408;DHT22;24866;50.248;8.252;2023-11-21T14:06:59;9.40;99.90
37408;DHT22;24866;50.248;8.252;2023-11-21T14:09:42;9.40;99.90
37408;DHT22;24866;50.248;8.252;2023-11-21T14:12:17;9.40;99.90
37408;DHT22;24866;50.248;8.252;2023-11-21T14:14:47;9.40;99.90
37408;DHT22;24866;50.248;8.252;2023-11-21T14:17:18;9.40;99.90
37408;DHT22;24866;50.248;8.252;2023-11-21T14:19:50;9.30;99.90
37408;DHT22;24866;50.248;8.252;2023-11-21T14:22:20;9.40;99.90
37408;DHT22;24866;50.248;8.252;2023-11-21T14:24:50;9.30;99.90
37408;DHT22;24866;50.248;8.252;2023-11-21T14:27:20;9.30;99.90
37408;DHT22;24866;50.248;8.252;2023-11-21T14:29:50;9.30;99.90
37408;DHT22;24866;50.248;8.252;2023-11-21T14:32:22;9.30;99.90
37408;DHT22;24866;50.248;8.252;2023-11-21T14:34:54;9.30;99.90
37408;DHT22;24866;50.248;8.252;2023-11-21T14:37:24;9.30;99.90
37408;DHT22;24866;50.248;8.252;2023-11-21T14:39:54;9.20;99.90
37408;DHT22;24866;50.248;8.252;2023-11-21T14:42:24;9.20;99.90
37408;DHT22;24866;50.248;8.252;2023-11-21T14:44:55;9.20;99.90
37408;DHT22;24866;50.248;8.252;2023-11-21T14:47:30;9.20;99.90
37408;DHT22;24866;50.248;8.252;2023-11-21T14:50:01;9.20;99.90
37408;DHT22;24866;50.248;8.252;2023-11-21T14:52:51;9.20;99.90
37408;DHT22;24866;50.248;8.252;2023-11-21T14:55:27;9.10;99.90
37408;DHT22;24866;50.248;8.252;2023-11-21T14:58:00;9.10;99.90
37408;DHT22;24866;50.248;8.252;2023-11-21T15:00:32;9.10;99.90
37408;DHT22;24866;50.248;8.252;2023-11-21T15:03:14;9.10;99.90
37408;DHT22;24866;50.248;8.252;2023-11-21T15:06:05;9.10;99.90
37408;DHT22;24866;50.248;8.252;2023-11-21T15:08:51;9.10;99.90
37408;DHT22;24866;50.248;8.252;2023-11-21T15:11:28;9.10;99.90
37408;DHT22;24866;50.248;8.252;2023-11-21T15:13:59;9.10;99.90
37408;DHT22;24866;50.248;8.252;2023-11-21T15:16:29;9.10;99.90
37408;DHT22;24866;50.248;8.252;2023-11-21T15:19:01;9.10;99.90
37408;DHT22;24866;50.248;8.252;2023-11-21T15:21:31;9.20;99.90
37408;DHT22;24866;50.248;8.252;2023-11-21T15:24:01;9.10;99.90
37408;DHT22;24866;50.248;8.252;2023-11-21T15:26:31;9.10;99.90
37408;DHT22;24866;50.248;8.252;2023-11-21T15:29:01;9.10;99.90
37408;DHT22;24866;50.248;8.252;2023-11-21T15:31:31;9.10;99.90
37408;DHT22;24866;50.248;8.252;2023-11-21T15:34:02;9.10;99.90
37408;DHT22;24866;50.248;8.252;2023-11-21T15:36:33;9.00;99.90
37408;DHT22;24866;50.248;8.252;2023-11-21T15:39:03;9.10;99.90
37408;DHT22;24866;50.248;8.252;2023-11-21T15:41:33;9.00;99.90
37408;DHT22;24866;50.248;8.252;2023-11-21T15:44:04;9.00;99.90
37408;DHT22;24866;50.248;8.252;2023-11-21T15:46:35;9.00;99.90
37408;DHT22;24866;50.248;8.252;2023-11-21T15:49:08;9.00;99.90
37408;DHT22;24866;50.248;8.252;2023-11-21T15:51:43;9.00;99.90
37408;DHT22;24866;50.248;8.252;2023-11-21T15:54:15;9.00;99.90
37408;DHT22;24866;50.248;8.252;2023-11-21T15:56:45;9.00;99.90
37408;DHT22;24866;50.248;8.252;2023-11-21T15:59:15;9.00;99.90
37408;DHT22;24866;50.248;8.252;2023-11-21T16:01:45;8.90;99.90
37408;DHT22;24866;50.248;8.252;2023-11-21T16:04:18;8.90;99.90
37408;DHT22;24866;50.248;8.252;2023-11-21T16:06:50;8.90;99.90
37408;DHT22;24866;50.248;8.252;2023-11-21T16:09:21;8.90;99.90
37408;DHT22;24866;50.248;8.252;2023-11-21T16:11:52;8.90;99.90